sensor_id;sensor_type;location;lat;lon;timestamp;temperature;humidity
1536;DHT22;761;50.074;8.228;2022-08-21T00:00:26;18.70;1.00
1536;DHT22;761;50.074;8.228;2022-08-21T00:03:02;18.80;1.00
1536;DHT22;761;50.074;8.228;2022-08-21T00:05:32;18.80;1.00
1536;DHT22;761;50.074;8.228;2022-08-21T00:08:01;18.80;1.00
1536;DHT22;761;50.074;8.228;2022-08-21T00:10:29;18.90;1.00
1536;DHT22;761;50.074;8.228;2022-08-21T00:13:00;18.80;1.00
1536;DHT22;761;50.074;8.228;2022-08-21T00:15:30;18.70;1.00
1536;DHT22;761;50.074;8.228;2022-08-21T00:17:59;18.50;1.00
1536;DHT22;761;50.074;8.228;2022-08-21T00:20:27;18.50;1.00
1536;DHT22;761;50.074;8.228;2022-08-21T00:22:57;18.50;1.00
1536;DHT22;761;50.074;8.228;2022-08-21T00:25:26;18.60;1.00
1536;DHT22;761;50.074;8.228;2022-08-21T00:27:54;18.80;1.00
1536;DHT22;761;50.074;8.228;2022-08-21T00:30:25;18.80;1.00
1536;DHT22;761;50.074;8.228;2022-08-21T00:32:55;18.80;1.00
1536;DHT22;761;50.074;8.228;2022-08-21T00:35:27;18.70;1.00
1536;DHT22;761;50.074;8.228;2022-08-21T00:37:56;18.60;1.00
1536;DHT22;761;50.074;8.228;2022-08-21T00:40:27;18.50;1.00
1536;DHT22;761;50.074;8.228;2022-08-21T00:42:55;18.20;1.00
1536;DHT22;761;50.074;8.228;2022-08-21T00:45:25;18.20;1.00
1536;DHT22;761;50.074;8.228;2022-08-21T00:47:54;18.10;1.00
1536;DHT22;761;50.074;8.228;2022-08-21T00:50:26;18.10;1.00
1536;DHT22;761;50.074;8.228;2022-08-21T00:52:57;18.20;1.00
1536;DHT22;761;50.074;8.228;2022-08-21T00:55:26;18.10;1.00
1536;DHT22;761;50.074;8.228;2022-08-21T00:57:59;17.90;1.00
1536;DHT22;761;50.074;8.228;2022-08-21T01:00:32;17.60;1.00
1536;DHT22;761;50.074;8.228;2022-08-21T01:03:02;17.50;1.00
1536;DHT22;761;50.074;8.228;2022-08-21T01:05:35;17.60;1.00
1536;DHT22;761;50.074;8.228;2022-08-21T01:08:03;17.40;1.00
1536;DHT22;761;50.074;8.228;2022-08-21T01:10:32;17.60;1.00
1536;DHT22;761;50.074;8.228;2022-08-21T01:13:00;17.60;1.00
1536;DHT22;761;50.074;8.228;2022-08-21T01:15:38;17.50;1.00
1536;DHT22;761;50.074;8.228;2022-08-21T01:18:09;17.50;1.00
1536;DHT22;761;50.074;8.228;2022-08-21T01:20:40;17.40;1.00
1536;DHT22;761;50.074;8.228;2022-08-21T01:23:13;17.40;1.00
1536;DHT22;761;50.074;8.228;2022-08-21T01:25:41;17.40;1.00
1536;DHT22;761;50.074;8.228;2022-08-21T01:28:13;17.30;1.00
1536;DHT22;761;50.074;8.228;2022-08-21T01:30:43;17.20;1.00
1536;DHT22;761;50.074;8.228;2022-08-21T01:33:11;17.20;1.00
1536;DHT22;761;50.074;8.228;2022-08-21T01:35:40;17.20;1.00
1536;DHT22;761;50.074;8.228;2022-08-21T01:38:10;17.10;1.00
1536;DHT22;761;50.074;8.228;2022-08-21T01:40:42;17.10;1.00
1536;DHT22;761;50.074;8.228;2022-08-21T01:43:11;17.10;1.00
1536;DHT22;761;50.074;8.228;2022-08-21T01:45:39;17.10;1.00
1536;DHT22;761;50.074;8.228;2022-08-21T01:48:07;17.20;1.00
1536;DHT22;761;50.074;8.228;2022-08-21T01:53:04;17.40;1.00
1536;DHT22;761;50.074;8.228;2022-08-21T01:55:33;17.30;1.00
1536;DHT22;761;50.074;8.228;2022-08-21T01:58:02;17.50;1.00
1536;DHT22;761;50.074;8.228;2022-08-21T02:00:31;17.40;1.00
1536;DHT22;761;50.074;8.228;2022-08-21T02:02:59;17.30;1.00
1536;DHT22;761;50.074;8.228;2022-08-21T02:05:27;17.30;1.00
1536;DHT22;761;50.074;8.228;2022-08-21T02:07:56;17.30;1.00
1536;DHT22;761;50.074;8.228;2022-08-21T02:10:28;17.40;1.00
1536;DHT22;761;50.074;8.228;2022-08-21T02:12:57;17.40;1.00
1536;DHT22;761;50.074;8.228;2022-08-21T02:15:29;17.50;1.00
1536;DHT22;761;50.074;8.228;2022-08-21T02:18:00;17.50;1.00
1536;DHT22;761;50.074;8.228;2022-08-21T02:20:32;17.40;1.00
1536;DHT22;761;50.074;8.228;2022-08-21T02:23:02;17.30;1.00
1536;DHT22;761;50.074;8.228;2022-08-21T02:25:31;17.30;1.00
1536;DHT22;761;50.074;8.228;2022-08-21T02:28:04;17.30;1.00
1536;DHT22;761;50.074;8.228;2022-08-21T02:30:37;17.30;1.00
1536;DHT22;761;50.074;8.228;2022-08-21T02:33:07;17.40;1.00
1536;DHT22;761;50.074;8.228;2022-08-21T02:35:37;17.40;1.00
1536;DHT22;761;50.074;8.228;2022-08-21T02:38:08;17.40;1.00
1536;DHT22;761;50.074;8.228;2022-08-21T02:40:41;17.50;1.00
1536;DHT22;761;50.074;8.228;2022-08-21T02:43:14;17.40;1.00
1536;DHT22;761;50.074;8.228;2022-08-21T02:45:44;17.40;1.00
1536;DHT22;761;50.074;8.228;2022-08-21T02:48:15;17.50;1.00
1536;DHT22;761;50.074;8.228;2022-08-21T02:50:50;17.40;1.00
1536;DHT22;761;50.074;8.228;2022-08-21T02:53:19;17.20;1.00
1536;DHT22;761;50.074;8.228;2022-08-21T02:55:49;17.10;1.00
1536;DHT22;761;50.074;8.228;2022-08-21T02:58:22;17.20;1.00
1536;DHT22;761;50.074;8.228;2022-08-21T03:00:52;17.20;1.00
1536;DHT22;761;50.074;8.228;2022-08-21T03:03:21;17.20;1.00
1536;DHT22;761;50.074;8.228;2022-08-21T03:05:50;17.20;1.00
1536;DHT22;761;50.074;8.228;2022-08-21T03:08:19;17.30;1.00
1536;DHT22;761;50.074;8.228;2022-08-21T03:10:51;17.30;1.00
1536;DHT22;761;50.074;8.228;2022-08-21T03:13:20;17.30;1.00
1536;DHT22;761;50.074;8.228;2022-08-21T03:15:50;17.10;1.00
1536;DHT22;761;50.074;8.228;2022-08-21T03:18:20;16.90;1.00
1536;DHT22;761;50.074;8.228;2022-08-21T03:20:48;16.70;1.00
1536;DHT22;761;50.074;8.228;2022-08-21T03:23:19;16.70;1.00
1536;DHT22;761;50.074;8.228;2022-08-21T03:25:47;16.70;1.00
1536;DHT22;761;50.074;8.228;2022-08-21T03:28:21;16.60;1.00
1536;DHT22;761;50.074;8.228;2022-08-21T03:30:50;16.50;1.00
1536;DHT22;761;50.074;8.228;2022-08-21T03:33:21;16.50;1.00
1536;DHT22;761;50.074;8.228;2022-08-21T03:35:56;16.60;1.00
1536;DHT22;761;50.074;8.228;2022-08-21T03:38:28;16.60;1.00
1536;DHT22;761;50.074;8.228;2022-08-21T03:40:58;16.60;1.00
1536;DHT22;761;50.074;8.228;2022-08-21T03:43:27;16.50;1.00
1536;DHT22;761;50.074;8.228;2022-08-21T03:46:00;16.40;1.00
1536;DHT22;761;50.074;8.228;2022-08-21T03:48:35;16.40;1.00
1536;DHT22;761;50.074;8.228;2022-08-21T03:51:04;16.20;1.00
1536;DHT22;761;50.074;8.228;2022-08-21T03:53:33;16.20;1.00
1536;DHT22;761;50.074;8.228;2022-08-21T03:56:02;16.20;1.00
1536;DHT22;761;50.074;8.228;2022-08-21T03:58:31;16.10;1.00
1536;DHT22;761;50.074;8.228;2022-08-21T04:01:01;16.20;1.00
1536;DHT22;761;50.074;8.228;2022-08-21T04:03:30;16.20;1.00
1536;DHT22;761;50.074;8.228;2022-08-21T04:05:59;16.20;1.00
1536;DHT22;761;50.074;8.228;2022-08-21T04:08:28;16.20;1.00
1536;DHT22;761;50.074;8.228;2022-08-21T04:10:58;16.10;1.00
1536;DHT22;761;50.074;8.228;2022-08-21T04:13:26;16.00;1.00
1536;DHT22;761;50.074;8.228;2022-08-21T04:15:56;16.00;1.00
1536;DHT22;761;50.074;8.228;2022-08-21T04:18:25;16.10;1.00
1536;DHT22;761;50.074;8.228;2022-08-21T04:20:54;16.10;1.00
1536;DHT22;761;50.074;8.228;2022-08-21T04:23:26;16.10;1.00
1536;DHT22;761;50.074;8.228;2022-08-21T04:25:56;16.10;1.00
1536;DHT22;761;50.074;8.228;2022-08-21T04:28:26;15.90;1.00
1536;DHT22;761;50.074;8.228;2022-08-21T04:30:57;15.90;1.00
1536;DHT22;761;50.074;8.228;2022-08-21T04:33:25;15.80;1.00
1536;DHT22;761;50.074;8.228;2022-08-21T04:35:54;15.80;1.00
1536;DHT22;761;50.074;8.228;2022-08-21T04:38:24;15.70;1.00
1536;DHT22;761;50.074;8.228;2022-08-21T04:41:02;15.70;1.00
1536;DHT22;761;50.074;8.228;2022-08-21T04:43:31;15.60;1.00
1536;DHT22;761;50.074;8.228;2022-08-21T04:46:02;15.70;1.00
1536;DHT22;761;50.074;8.228;2022-08-21T04:48:30;15.60;1.00
1536;DHT22;761;50.074;8.228;2022-08-21T04:51:03;15.70;1.00
1536;DHT22;761;50.074;8.228;2022-08-21T04:53:38;15.80;1.00
1536;DHT22;761;50.074;8.228;2022-08-21T04:56:11;15.90;1.00
1536;DHT22;761;50.074;8.228;2022-08-21T04:58:41;16.00;1.00
1536;DHT22;761;50.074;8.228;2022-08-21T05:01:13;16.20;1.00
1536;DHT22;761;50.074;8.228;2022-08-21T05:03:42;16.20;1.00
1536;DHT22;761;50.074;8.228;2022-08-21T05:06:13;16.30;1.00
1536;DHT22;761;50.074;8.228;2022-08-21T05:08:47;16.30;1.00
1536;DHT22;761;50.074;8.228;2022-08-21T05:11:24;16.40;1.00
1536;DHT22;761;50.074;8.228;2022-08-21T05:13:52;16.40;1.00
1536;DHT22;761;50.074;8.228;2022-08-21T05:16:23;16.50;1.00
1536;DHT22;761;50.074;8.228;2022-08-21T05:19:06;16.80;1.00
1536;DHT22;761;50.074;8.228;2022-08-21T05:21:34;17.00;1.00
1536;DHT22;761;50.074;8.228;2022-08-21T05:24:07;17.00;1.00
1536;DHT22;761;50.074;8.228;2022-08-21T05:26:36;17.00;1.00
1536;DHT22;761;50.074;8.228;2022-08-21T05:29:13;17.00;1.00
1536;DHT22;761;50.074;8.228;2022-08-21T05:31:42;17.10;1.00
1536;DHT22;761;50.074;8.228;2022-08-21T05:34:11;17.10;1.00
1536;DHT22;761;50.074;8.228;2022-08-21T05:36:42;17.20;1.00
1536;DHT22;761;50.074;8.228;2022-08-21T05:39:12;17.30;1.00
1536;DHT22;761;50.074;8.228;2022-08-21T05:41:40;17.40;1.00
1536;DHT22;761;50.074;8.228;2022-08-21T05:44:08;17.50;1.00
1536;DHT22;761;50.074;8.228;2022-08-21T05:46:37;17.70;1.00
1536;DHT22;761;50.074;8.228;2022-08-21T05:49:05;17.80;1.00
1536;DHT22;761;50.074;8.228;2022-08-21T05:51:34;18.10;1.00
1536;DHT22;761;50.074;8.228;2022-08-21T05:54:03;18.10;1.00
1536;DHT22;761;50.074;8.228;2022-08-21T05:56:33;18.20;1.00
1536;DHT22;761;50.074;8.228;2022-08-21T05:59:01;18.50;1.00
1536;DHT22;761;50.074;8.228;2022-08-21T06:01:34;18.80;1.00
1536;DHT22;761;50.074;8.228;2022-08-21T06:04:03;18.90;1.00
1536;DHT22;761;50.074;8.228;2022-08-21T06:06:32;19.20;1.00
1536;DHT22;761;50.074;8.228;2022-08-21T06:09:01;19.40;1.00
1536;DHT22;761;50.074;8.228;2022-08-21T06:11:33;19.80;1.00
1536;DHT22;761;50.074;8.228;2022-08-21T06:14:01;19.90;1.00
1536;DHT22;761;50.074;8.228;2022-08-21T06:16:30;20.40;1.00
1536;DHT22;761;50.074;8.228;2022-08-21T06:18:59;20.70;1.00
1536;DHT22;761;50.074;8.228;2022-08-21T06:21:29;20.90;1.00
1536;DHT22;761;50.074;8.228;2022-08-21T06:23:57;20.90;1.00
1536;DHT22;761;50.074;8.228;2022-08-21T06:26:28;21.00;1.00
1536;DHT22;761;50.074;8.228;2022-08-21T06:28:58;21.10;1.00
1536;DHT22;761;50.074;8.228;2022-08-21T06:31:29;21.50;1.00
1536;DHT22;761;50.074;8.228;2022-08-21T06:33:57;21.40;1.00
1536;DHT22;761;50.074;8.228;2022-08-21T06:36:26;21.60;1.00
1536;DHT22;761;50.074;8.228;2022-08-21T06:38:54;21.60;1.00
1536;DHT22;761;50.074;8.228;2022-08-21T06:41:23;21.80;1.00
1536;DHT22;761;50.074;8.228;2022-08-21T06:43:53;21.80;1.00
1536;DHT22;761;50.074;8.228;2022-08-21T06:46:25;21.90;1.00
1536;DHT22;761;50.074;8.228;2022-08-21T06:48:54;22.10;1.00
1536;DHT22;761;50.074;8.228;2022-08-21T06:51:23;22.30;1.00
1536;DHT22;761;50.074;8.228;2022-08-21T06:53:52;22.30;1.00
1536;DHT22;761;50.074;8.228;2022-08-21T06:56:21;22.30;1.00
1536;DHT22;761;50.074;8.228;2022-08-21T06:58:49;22.40;1.00
1536;DHT22;761;50.074;8.228;2022-08-21T07:01:19;22.50;1.00
1536;DHT22;761;50.074;8.228;2022-08-21T07:03:52;22.50;1.00
1536;DHT22;761;50.074;8.228;2022-08-21T07:06:20;22.50;1.00
1536;DHT22;761;50.074;8.228;2022-08-21T07:08:49;22.70;1.00
1536;DHT22;761;50.074;8.228;2022-08-21T07:11:20;22.80;1.00
1536;DHT22;761;50.074;8.228;2022-08-21T07:13:49;22.90;1.00
1536;DHT22;761;50.074;8.228;2022-08-21T07:16:20;22.90;1.00
1536;DHT22;761;50.074;8.228;2022-08-21T07:18:49;22.80;1.00
1536;DHT22;761;50.074;8.228;2022-08-21T07:21:19;22.80;1.00
1536;DHT22;761;50.074;8.228;2022-08-21T07:23:52;23.00;1.00
1536;DHT22;761;50.074;8.228;2022-08-21T07:26:22;23.10;1.00
1536;DHT22;761;50.074;8.228;2022-08-21T07:28:52;22.90;1.00
1536;DHT22;761;50.074;8.228;2022-08-21T07:31:22;23.10;1.00
1536;DHT22;761;50.074;8.228;2022-08-21T07:33:51;23.20;1.00
1536;DHT22;761;50.074;8.228;2022-08-21T07:36:20;22.90;1.00
1536;DHT22;761;50.074;8.228;2022-08-21T07:38:49;22.90;1.00
1536;DHT22;761;50.074;8.228;2022-08-21T07:41:22;22.90;1.00
1536;DHT22;761;50.074;8.228;2022-08-21T07:43:51;22.80;1.00
1536;DHT22;761;50.074;8.228;2022-08-21T07:46:20;22.90;1.00
1536;DHT22;761;50.074;8.228;2022-08-21T07:48:48;23.00;1.00
1536;DHT22;761;50.074;8.228;2022-08-21T07:51:23;22.90;1.00
1536;DHT22;761;50.074;8.228;2022-08-21T07:53:56;23.10;1.00
1536;DHT22;761;50.074;8.228;2022-08-21T07:56:25;23.00;1.00
1536;DHT22;761;50.074;8.228;2022-08-21T07:58:54;23.00;1.00
1536;DHT22;761;50.074;8.228;2022-08-21T08:01:24;23.20;1.00
1536;DHT22;761;50.074;8.228;2022-08-21T08:03:53;23.10;1.00
1536;DHT22;761;50.074;8.228;2022-08-21T08:06:24;23.20;1.00
1536;DHT22;761;50.074;8.228;2022-08-21T08:08:52;23.30;1.00
1536;DHT22;761;50.074;8.228;2022-08-21T08:11:21;23.50;1.00
1536;DHT22;761;50.074;8.228;2022-08-21T08:13:52;23.50;1.00
1536;DHT22;761;50.074;8.228;2022-08-21T08:16:20;23.50;1.00
1536;DHT22;761;50.074;8.228;2022-08-21T08:18:48;23.00;1.00
1536;DHT22;761;50.074;8.228;2022-08-21T08:21:18;22.90;1.00
1536;DHT22;761;50.074;8.228;2022-08-21T08:23:49;23.10;1.00
1536;DHT22;761;50.074;8.228;2022-08-21T08:26:17;23.40;1.00
1536;DHT22;761;50.074;8.228;2022-08-21T08:28:46;23.40;1.00
1536;DHT22;761;50.074;8.228;2022-08-21T08:31:14;23.70;1.00
1536;DHT22;761;50.074;8.228;2022-08-21T08:33:45;23.90;1.00
1536;DHT22;761;50.074;8.228;2022-08-21T08:36:15;23.40;1.00
1536;DHT22;761;50.074;8.228;2022-08-21T08:38:46;23.70;1.00
1536;DHT22;761;50.074;8.228;2022-08-21T08:41:19;23.90;1.00
1536;DHT22;761;50.074;8.228;2022-08-21T08:44:00;24.00;1.00
1536;DHT22;761;50.074;8.228;2022-08-21T08:46:35;23.90;1.00
1536;DHT22;761;50.074;8.228;2022-08-21T08:49:09;23.80;1.00
1536;DHT22;761;50.074;8.228;2022-08-21T08:51:46;23.90;1.00
1536;DHT22;761;50.074;8.228;2022-08-21T08:54:24;24.00;1.00
1536;DHT22;761;50.074;8.228;2022-08-21T08:56:54;24.10;1.00
1536;DHT22;761;50.074;8.228;2022-08-21T08:59:26;24.20;1.00
1536;DHT22;761;50.074;8.228;2022-08-21T09:01:56;24.10;1.00
1536;DHT22;761;50.074;8.228;2022-08-21T09:04:26;24.40;1.00
1536;DHT22;761;50.074;8.228;2022-08-21T09:07:06;24.50;1.00
1536;DHT22;761;50.074;8.228;2022-08-21T09:09:47;23.90;1.00
1536;DHT22;761;50.074;8.228;2022-08-21T09:12:25;24.40;1.00
1536;DHT22;761;50.074;8.228;2022-08-21T09:15:03;24.80;1.00
1536;DHT22;761;50.074;8.228;2022-08-21T09:17:55;24.60;1.00
1536;DHT22;761;50.074;8.228;2022-08-21T09:20:38;24.30;1.00
1536;DHT22;761;50.074;8.228;2022-08-21T09:23:17;23.90;1.00
1536;DHT22;761;50.074;8.228;2022-08-21T09:25:55;24.10;1.00
1536;DHT22;761;50.074;8.228;2022-08-21T09:28:31;24.00;1.00
1536;DHT22;761;50.074;8.228;2022-08-21T09:31:00;24.00;1.00
1536;DHT22;761;50.074;8.228;2022-08-21T09:33:32;24.00;1.00
1536;DHT22;761;50.074;8.228;2022-08-21T09:36:01;24.20;1.00
1536;DHT22;761;50.074;8.228;2022-08-21T09:38:31;24.70;1.00
1536;DHT22;761;50.074;8.228;2022-08-21T09:41:03;24.80;1.00
1536;DHT22;761;50.074;8.228;2022-08-21T09:43:33;25.10;1.00
1536;DHT22;761;50.074;8.228;2022-08-21T09:46:05;25.30;99.90
1536;DHT22;761;50.074;8.228;2022-08-21T09:48:42;25.40;99.90
1536;DHT22;761;50.074;8.228;2022-08-21T09:51:12;25.70;99.90
1536;DHT22;761;50.074;8.228;2022-08-21T09:53:47;25.70;99.90
1536;DHT22;761;50.074;8.228;2022-08-21T09:56:25;25.20;99.90
1536;DHT22;761;50.074;8.228;2022-08-21T09:59:25;24.80;99.90
1536;DHT22;761;50.074;8.228;2022-08-21T10:01:59;25.30;99.90
1536;DHT22;761;50.074;8.228;2022-08-21T10:04:30;25.50;99.90
1536;DHT22;761;50.074;8.228;2022-08-21T10:07:06;25.10;99.90
1536;DHT22;761;50.074;8.228;2022-08-21T10:09:35;24.80;99.90
1536;DHT22;761;50.074;8.228;2022-08-21T10:12:12;24.90;99.90
1536;DHT22;761;50.074;8.228;2022-08-21T10:14:54;25.10;99.90
1536;DHT22;761;50.074;8.228;2022-08-21T10:17:31;25.50;99.90
1536;DHT22;761;50.074;8.228;2022-08-21T10:20:09;25.90;99.90
1536;DHT22;761;50.074;8.228;2022-08-21T10:22:45;25.40;99.90
1536;DHT22;761;50.074;8.228;2022-08-21T10:25:18;25.90;99.90
1536;DHT22;761;50.074;8.228;2022-08-21T10:27:55;26.00;99.90
1536;DHT22;761;50.074;8.228;2022-08-21T10:30:36;25.70;99.90
1536;DHT22;761;50.074;8.228;2022-08-21T10:33:29;25.20;99.90
1536;DHT22;761;50.074;8.228;2022-08-21T10:36:13;25.20;99.90
1536;DHT22;761;50.074;8.228;2022-08-21T10:38:55;24.90;99.90
1536;DHT22;761;50.074;8.228;2022-08-21T10:42:17;25.10;99.90
1536;DHT22;761;50.074;8.228;2022-08-21T10:45:02;25.70;99.90
1536;DHT22;761;50.074;8.228;2022-08-21T10:47:41;26.20;99.90
1536;DHT22;761;50.074;8.228;2022-08-21T10:50:19;26.40;99.90
1536;DHT22;761;50.074;8.228;2022-08-21T10:53:09;26.10;99.90
1536;DHT22;761;50.074;8.228;2022-08-21T10:55:42;26.50;99.90
1536;DHT22;761;50.074;8.228;2022-08-21T10:58:19;26.40;99.90
1536;DHT22;761;50.074;8.228;2022-08-21T11:00:53;25.90;99.90
1536;DHT22;761;50.074;8.228;2022-08-21T11:03:33;25.60;99.90
1536;DHT22;761;50.074;8.228;2022-08-21T11:06:06;25.80;99.90
1536;DHT22;761;50.074;8.228;2022-08-21T11:08:39;25.70;99.90
1536;DHT22;761;50.074;8.228;2022-08-21T11:11:13;25.20;99.90
1536;DHT22;761;50.074;8.228;2022-08-21T11:13:54;25.80;99.90
1536;DHT22;761;50.074;8.228;2022-08-21T11:16:33;26.50;99.90
1536;DHT22;761;50.074;8.228;2022-08-21T11:19:10;26.80;99.90
1536;DHT22;761;50.074;8.228;2022-08-21T11:21:47;26.70;99.90
1536;DHT22;761;50.074;8.228;2022-08-21T11:24:24;26.80;99.90
1536;DHT22;761;50.074;8.228;2022-08-21T11:27:01;27.10;99.90
1536;DHT22;761;50.074;8.228;2022-08-21T11:29:35;27.30;99.90
1536;DHT22;761;50.074;8.228;2022-08-21T11:32:21;27.10;99.90
1536;DHT22;761;50.074;8.228;2022-08-21T11:35:05;27.50;99.90
1536;DHT22;761;50.074;8.228;2022-08-21T11:37:50;27.30;99.90
1536;DHT22;761;50.074;8.228;2022-08-21T11:40:36;26.80;99.90
1536;DHT22;761;50.074;8.228;2022-08-21T11:43:12;26.80;99.90
1536;DHT22;761;50.074;8.228;2022-08-21T11:45:49;26.50;99.90
1536;DHT22;761;50.074;8.228;2022-08-21T11:48:33;26.50;99.90
1536;DHT22;761;50.074;8.228;2022-08-21T11:51:09;26.80;99.90
1536;DHT22;761;50.074;8.228;2022-08-21T11:53:43;26.90;99.90
1536;DHT22;761;50.074;8.228;2022-08-21T11:56:24;27.60;99.90
1536;DHT22;761;50.074;8.228;2022-08-21T11:58:59;27.90;99.90
1536;DHT22;761;50.074;8.228;2022-08-21T12:01:32;27.00;99.90
1536;DHT22;761;50.074;8.228;2022-08-21T12:04:05;27.00;99.90
1536;DHT22;761;50.074;8.228;2022-08-21T12:06:41;27.50;99.90
1536;DHT22;761;50.074;8.228;2022-08-21T12:09:26;28.00;99.90
1536;DHT22;761;50.074;8.228;2022-08-21T12:12:04;28.20;99.90
1536;DHT22;761;50.074;8.228;2022-08-21T12:14:38;27.50;99.90
1536;DHT22;761;50.074;8.228;2022-08-21T12:17:18;27.80;99.90
1536;DHT22;761;50.074;8.228;2022-08-21T12:19:57;27.90;99.90
1536;DHT22;761;50.074;8.228;2022-08-21T12:22:38;27.50;99.90
1536;DHT22;761;50.074;8.228;2022-08-21T12:25:10;27.60;99.90
1536;DHT22;761;50.074;8.228;2022-08-21T12:27:46;28.10;99.90
1536;DHT22;761;50.074;8.228;2022-08-21T12:30:22;28.40;99.90
1536;DHT22;761;50.074;8.228;2022-08-21T12:33:01;28.00;99.90
1536;DHT22;761;50.074;8.228;2022-08-21T12:35:35;28.00;99.90
1536;DHT22;761;50.074;8.228;2022-08-21T12:38:09;27.80;99.90
1536;DHT22;761;50.074;8.228;2022-08-21T12:40:53;28.30;99.90
1536;DHT22;761;50.074;8.228;2022-08-21T12:43:28;27.80;99.90
1536;DHT22;761;50.074;8.228;2022-08-21T12:45:59;27.20;99.90
1536;DHT22;761;50.074;8.228;2022-08-21T12:48:35;27.50;99.90
1536;DHT22;761;50.074;8.228;2022-08-21T12:51:11;27.80;99.90
1536;DHT22;761;50.074;8.228;2022-08-21T12:53:45;27.90;99.90
1536;DHT22;761;50.074;8.228;2022-08-21T12:56:20;28.20;99.90
1536;DHT22;761;50.074;8.228;2022-08-21T12:58:50;28.20;99.90
1536;DHT22;761;50.074;8.228;2022-08-21T13:01:24;27.50;99.90
1536;DHT22;761;50.074;8.228;2022-08-21T13:03:56;27.40;99.90
1536;DHT22;761;50.074;8.228;2022-08-21T13:06:37;27.80;99.90
1536;DHT22;761;50.074;8.228;2022-08-21T13:09:14;27.70;99.90
1536;DHT22;761;50.074;8.228;2022-08-21T13:11:46;28.00;99.90
1536;DHT22;761;50.074;8.228;2022-08-21T13:14:28;28.80;99.90
1536;DHT22;761;50.074;8.228;2022-08-21T13:16:58;29.00;99.90
1536;DHT22;761;50.074;8.228;2022-08-21T13:19:33;28.60;99.90
1536;DHT22;761;50.074;8.228;2022-08-21T13:22:03;29.20;99.90
1536;DHT22;761;50.074;8.228;2022-08-21T13:24:53;29.60;99.90
1536;DHT22;761;50.074;8.228;2022-08-21T13:27:25;29.50;99.90
1536;DHT22;761;50.074;8.228;2022-08-21T13:30:10;29.50;99.90
1536;DHT22;761;50.074;8.228;2022-08-21T13:32:43;29.30;99.90
1536;DHT22;761;50.074;8.228;2022-08-21T13:35:17;29.60;99.90
1536;DHT22;761;50.074;8.228;2022-08-21T13:37:49;29.30;99.90
1536;DHT22;761;50.074;8.228;2022-08-21T13:40:26;28.40;99.90
1536;DHT22;761;50.074;8.228;2022-08-21T13:42:56;28.40;99.90
1536;DHT22;761;50.074;8.228;2022-08-21T13:45:32;28.40;99.90
1536;DHT22;761;50.074;8.228;2022-08-21T13:48:06;28.60;99.90
1536;DHT22;761;50.074;8.228;2022-08-21T13:50:36;28.50;99.90
1536;DHT22;761;50.074;8.228;2022-08-21T13:53:07;28.60;99.90
1536;DHT22;761;50.074;8.228;2022-08-21T13:55:42;28.50;99.90
1536;DHT22;761;50.074;8.228;2022-08-21T13:58:11;28.60;99.90
1536;DHT22;761;50.074;8.228;2022-08-21T14:00:46;28.60;99.90
1536;DHT22;761;50.074;8.228;2022-08-21T14:03:29;28.50;99.90
1536;DHT22;761;50.074;8.228;2022-08-21T14:05:59;28.10;99.90
1536;DHT22;761;50.074;8.228;2022-08-21T14:08:32;27.20;99.90
1536;DHT22;761;50.074;8.228;2022-08-21T14:11:06;27.20;99.90
1536;DHT22;761;50.074;8.228;2022-08-21T14:13:40;27.60;99.90
1536;DHT22;761;50.074;8.228;2022-08-21T14:16:16;27.50;99.90
1536;DHT22;761;50.074;8.228;2022-08-21T14:18:50;27.90;99.90
1536;DHT22;761;50.074;8.228;2022-08-21T14:21:30;28.00;99.90
1536;DHT22;761;50.074;8.228;2022-08-21T14:24:05;27.60;99.90
1536;DHT22;761;50.074;8.228;2022-08-21T14:26:43;27.70;99.90
1536;DHT22;761;50.074;8.228;2022-08-21T14:29:14;28.30;99.90
1536;DHT22;761;50.074;8.228;2022-08-21T14:31:48;28.80;99.90
1536;DHT22;761;50.074;8.228;2022-08-21T14:34:17;29.20;99.90
1536;DHT22;761;50.074;8.228;2022-08-21T14:36:49;29.30;99.90
1536;DHT22;761;50.074;8.228;2022-08-21T14:39:21;29.60;99.90
1536;DHT22;761;50.074;8.228;2022-08-21T14:41:59;29.70;99.90
1536;DHT22;761;50.074;8.228;2022-08-21T14:44:28;29.50;99.90
1536;DHT22;761;50.074;8.228;2022-08-21T14:46:56;29.40;99.90
1536;DHT22;761;50.074;8.228;2022-08-21T14:49:26;28.30;99.90
1536;DHT22;761;50.074;8.228;2022-08-21T14:51:55;28.50;99.90
1536;DHT22;761;50.074;8.228;2022-08-21T14:54:29;28.10;99.90
1536;DHT22;761;50.074;8.228;2022-08-21T14:57:04;28.20;99.90
1536;DHT22;761;50.074;8.228;2022-08-21T14:59:34;28.40;99.90
1536;DHT22;761;50.074;8.228;2022-08-21T15:02:03;28.90;99.90
1536;DHT22;761;50.074;8.228;2022-08-21T15:04:32;29.20;99.90
1536;DHT22;761;50.074;8.228;2022-08-21T15:07:01;29.10;99.90
1536;DHT22;761;50.074;8.228;2022-08-21T15:09:30;28.90;99.90
1536;DHT22;761;50.074;8.228;2022-08-21T15:12:02;28.80;99.90
1536;DHT22;761;50.074;8.228;2022-08-21T15:14:33;29.00;99.90
1536;DHT22;761;50.074;8.228;2022-08-21T15:17:02;29.00;99.90
1536;DHT22;761;50.074;8.228;2022-08-21T15:19:33;28.80;99.90
1536;DHT22;761;50.074;8.228;2022-08-21T15:22:02;28.40;99.90
1536;DHT22;761;50.074;8.228;2022-08-21T15:24:31;27.70;99.90
1536;DHT22;761;50.074;8.228;2022-08-21T15:27:04;27.70;99.90
1536;DHT22;761;50.074;8.228;2022-08-21T15:29:34;27.50;99.90
1536;DHT22;761;50.074;8.228;2022-08-21T15:32:19;27.70;99.90
1536;DHT22;761;50.074;8.228;2022-08-21T15:34:49;27.80;99.90
1536;DHT22;761;50.074;8.228;2022-08-21T15:37:18;27.60;99.90
1536;DHT22;761;50.074;8.228;2022-08-21T15:39:47;27.40;99.90
1536;DHT22;761;50.074;8.228;2022-08-21T15:42:22;27.40;99.90
1536;DHT22;761;50.074;8.228;2022-08-21T15:44:54;27.60;99.90
1536;DHT22;761;50.074;8.228;2022-08-21T15:47:27;27.60;99.90
1536;DHT22;761;50.074;8.228;2022-08-21T15:49:56;27.70;99.90
1536;DHT22;761;50.074;8.228;2022-08-21T15:52:28;27.80;99.90
1536;DHT22;761;50.074;8.228;2022-08-21T15:54:59;27.80;99.90
1536;DHT22;761;50.074;8.228;2022-08-21T15:57:28;27.90;99.90
1536;DHT22;761;50.074;8.228;2022-08-21T15:59:58;27.60;99.90
1536;DHT22;761;50.074;8.228;2022-08-21T16:02:39;27.80;99.90
1536;DHT22;761;50.074;8.228;2022-08-21T16:05:08;27.80;99.90
1536;DHT22;761;50.074;8.228;2022-08-21T16:07:39;27.90;99.90
1536;DHT22;761;50.074;8.228;2022-08-21T16:10:11;28.00;99.90
1536;DHT22;761;50.074;8.228;2022-08-21T16:12:45;28.00;99.90
1536;DHT22;761;50.074;8.228;2022-08-21T16:15:17;27.60;99.90
1536;DHT22;761;50.074;8.228;2022-08-21T16:17:47;27.20;99.90
1536;DHT22;761;50.074;8.228;2022-08-21T16:20:21;27.20;99.90
1536;DHT22;761;50.074;8.228;2022-08-21T16:22:52;27.20;99.90
1536;DHT22;761;50.074;8.228;2022-08-21T16:25:21;27.20;99.90
1536;DHT22;761;50.074;8.228;2022-08-21T16:27:54;27.10;99.90
1536;DHT22;761;50.074;8.228;2022-08-21T16:30:29;27.10;99.90
1536;DHT22;761;50.074;8.228;2022-08-21T16:33:01;27.10;99.90
1536;DHT22;761;50.074;8.228;2022-08-21T16:35:31;27.00;99.90
1536;DHT22;761;50.074;8.228;2022-08-21T16:38:00;27.20;99.90
1536;DHT22;761;50.074;8.228;2022-08-21T16:40:35;27.10;99.90
1536;DHT22;761;50.074;8.228;2022-08-21T16:43:06;27.20;99.90
1536;DHT22;761;50.074;8.228;2022-08-21T16:45:37;27.20;99.90
1536;DHT22;761;50.074;8.228;2022-08-21T16:48:10;27.10;99.90
1536;DHT22;761;50.074;8.228;2022-08-21T16:50:42;27.00;99.90
1536;DHT22;761;50.074;8.228;2022-08-21T16:53:17;26.90;99.90
1536;DHT22;761;50.074;8.228;2022-08-21T16:55:49;26.80;99.90
1536;DHT22;761;50.074;8.228;2022-08-21T16:58:24;26.90;99.90
1536;DHT22;761;50.074;8.228;2022-08-21T17:00:53;26.80;99.90
1536;DHT22;761;50.074;8.228;2022-08-21T17:03:27;26.80;99.90